createdAt,value
2022-12-16T00:01:19.975Z,40.33
2022-12-16T00:03:49.854Z,38.60
2022-12-16T00:06:22.665Z,38.72
2022-12-16T00:08:51.966Z,39.75
2022-12-16T00:11:21.006Z,38.03
2022-12-16T00:13:49.392Z,34.70
2022-12-16T00:16:21.724Z,35.63
2022-12-16T00:18:51.848Z,36.25
2022-12-16T00:21:23.436Z,41.85
2022-12-16T00:23:51.518Z,36.80
2022-12-16T00:26:19.739Z,33.95
2022-12-16T00:28:48.066Z,42.78
2022-12-16T00:31:16.672Z,37.38
2022-12-16T00:33:45.736Z,41.55
2022-12-16T00:36:13.828Z,36.03
2022-12-16T00:38:43.369Z,31.23
2022-12-16T00:41:11.839Z,36.92
2022-12-16T00:43:39.899Z,40.95
2022-12-16T00:46:08.515Z,36.80
2022-12-16T00:48:36.853Z,38.13
2022-12-16T00:51:05.578Z,37.25
2022-12-16T00:53:37.057Z,41.35
2022-12-16T00:56:29.293Z,39.75
2022-12-16T00:58:57.356Z,31.27
2022-12-16T01:01:25.672Z,36.92
2022-12-16T01:03:57.345Z,40.63
2022-12-16T01:06:25.630Z,36.78
2022-12-16T01:08:56.157Z,36.88
2022-12-16T01:11:24.276Z,36.10
2022-12-16T01:13:55.300Z,40.47
2022-12-16T01:16:23.616Z,38.20
2022-12-16T01:18:52.097Z,33.55
2022-12-16T01:21:20.361Z,39.05
2022-12-16T01:23:48.935Z,42.30
2022-12-16T01:26:19.347Z,45.30
2022-12-16T01:28:50.172Z,35.35
2022-12-16T01:31:21.981Z,37.80
2022-12-16T01:33:50.351Z,35.33
2022-12-16T01:36:20.265Z,35.63
2022-12-16T01:39:05.850Z,36.67
2022-12-16T01:41:53.269Z,36.63
2022-12-16T01:44:23.435Z,37.28
2022-12-16T01:46:56.148Z,40.03
2022-12-16T01:49:29.104Z,36.13
2022-12-16T01:52:01.462Z,39.83
2022-12-16T01:54:32.836Z,33.40
2022-12-16T01:57:05.588Z,36.03
2022-12-16T01:59:37.383Z,39.47
2022-12-16T02:02:07.239Z,31.08
2022-12-16T02:04:35.556Z,36.63
2022-12-16T02:07:12.573Z,34.00
2022-12-16T02:09:40.807Z,37.30
2022-12-16T02:12:25.648Z,37.58
2022-12-16T02:15:19.343Z,32.97
2022-12-16T02:18:00.219Z,38.10
2022-12-16T02:21:09.826Z,42.97
2022-12-16T02:24:06.888Z,51.63
2022-12-16T02:27:07.570Z,38.05
2022-12-16T02:30:07.809Z,44.00
2022-12-16T02:32:50.349Z,37.45
2022-12-16T02:35:29.893Z,39.00
2022-12-16T02:38:09.487Z,36.90
2022-12-16T02:40:42.688Z,31.95
2022-12-16T02:43:24.151Z,38.33
2022-12-16T02:45:52.954Z,36.60
2022-12-16T02:48:23.934Z,33.10
2022-12-16T02:50:54.583Z,33.17
2022-12-16T02:53:23.235Z,35.50
2022-12-16T02:56:05.171Z,32.30
2022-12-16T02:58:39.184Z,30.55
2022-12-16T03:01:13.326Z,28.77
2022-12-16T03:03:49.140Z,33.55
2022-12-16T03:06:20.613Z,27.27
2022-12-16T03:08:55.758Z,29.77
2022-12-16T03:11:27.589Z,27.63
2022-12-16T03:13:58.021Z,34.17
2022-12-16T03:16:31.102Z,34.75
2022-12-16T03:19:06.802Z,32.53
2022-12-16T03:21:39.691Z,32.88
2022-12-16T03:24:13.814Z,36.45
2022-12-16T03:26:47.976Z,34.75
2022-12-16T03:29:22.988Z,30.42
2022-12-16T03:31:56.588Z,34.67
2022-12-16T03:34:34.296Z,30.13
2022-12-16T03:37:05.758Z,35.85
2022-12-16T03:39:36.209Z,26.52
2022-12-16T03:42:05.688Z,39.78
2022-12-16T03:44:36.757Z,36.95
2022-12-16T03:47:05.125Z,30.90
2022-12-16T03:49:34.705Z,31.30
2022-12-16T03:52:03.046Z,28.13
2022-12-16T03:54:31.183Z,32.72
2022-12-16T03:56:59.841Z,32.00
2022-12-16T03:59:28.222Z,36.10
2022-12-16T04:01:56.775Z,35.55
2022-12-16T04:04:25.065Z,34.00
2022-12-16T04:07:08.496Z,30.02
2022-12-16T04:09:37.029Z,31.30
2022-12-16T04:12:23.609Z,29.38
2022-12-16T04:15:09.232Z,34.83
2022-12-16T04:17:55.094Z,29.30
2022-12-16T04:20:47.608Z,31.98
2022-12-16T04:23:35.705Z,28.70
2022-12-16T04:26:30.046Z,24.63
2022-12-16T04:28:58.313Z,25.60
2022-12-16T11:16:23.142Z,20.63
2022-12-16T11:37:39.869Z,15.85
2022-12-16T12:10:26.708Z,14.90
2022-12-16T12:21:00.322Z,12.32
2022-12-16T12:30:45.287Z,13.05
2022-12-16T12:34:06.289Z,10.23
2022-12-16T12:40:24.879Z,11.80
2022-12-16T12:50:44.658Z,15.05
2022-12-16T12:57:48.192Z,14.02
2022-12-16T13:12:57.574Z,14.52
2022-12-16T13:15:58.973Z,11.15
2022-12-16T19:06:39.218Z,25.63
2022-12-16T19:09:40.645Z,28.80
2022-12-16T19:12:41.231Z,21.05
2022-12-16T19:15:41.222Z,21.35
2022-12-16T19:18:57.891Z,26.38
2022-12-16T19:21:56.825Z,24.70
2022-12-16T19:25:03.679Z,25.60
2022-12-16T19:28:10.437Z,28.75
2022-12-16T19:34:27.581Z,28.33
2022-12-16T19:37:26.211Z,22.30
2022-12-16T19:40:28.532Z,29.13
2022-12-16T19:43:26.913Z,23.75
2022-12-16T19:49:58.710Z,28.50
2022-12-16T19:56:07.118Z,30.27
2022-12-16T19:59:02.865Z,25.77
2022-12-16T20:02:03.259Z,25.02
2022-12-16T20:05:08.946Z,25.02
2022-12-16T20:08:03.033Z,25.02
2022-12-16T20:11:01.233Z,24.17
2022-12-16T20:14:18.020Z,27.90
2022-12-16T20:17:21.228Z,23.27
2022-12-16T20:20:15.635Z,23.45
2022-12-16T20:23:11.280Z,26.77
2022-12-16T20:26:15.812Z,26.52
2022-12-16T20:29:11.978Z,24.77
2022-12-16T20:32:04.180Z,24.98
2022-12-16T20:34:57.694Z,23.70
2022-12-16T20:38:15.931Z,27.77
2022-12-16T20:41:18.946Z,20.00
2022-12-16T20:44:19.474Z,26.35
2022-12-16T20:51:51.781Z,25.02
2022-12-16T20:59:03.575Z,19.60
2022-12-16T21:08:14.320Z,22.65
2022-12-16T21:11:12.147Z,30.13
2022-12-16T21:14:10.277Z,26.40
2022-12-16T21:17:08.795Z,25.42
2022-12-16T21:23:31.125Z,26.88
2022-12-16T21:43:00.296Z,20.90
2022-12-16T21:46:22.919Z,25.95
2022-12-16T21:53:04.724Z,21.50
2022-12-16T21:56:02.652Z,27.08
2022-12-16T22:06:37.126Z,26.70
2022-12-16T22:09:23.684Z,25.90
2022-12-16T22:17:07.346Z,24.88
